Time;durP1;ratioP1;P1;durP2;ratioP2;P2;SDS_P1;SDS_P2;PMS_P1;PMS_P2;Temp;Humidity;BMP_temperature;BMP_pressure;BME280_temperature;BME280_humidity;BME280_pressure;Samples;Min_cycle;Max_cycle;Signal;HPM_P1;HPM_P2
2022/03/01 00:00:17;;;;;;;18.33;13.40;;;2.90;75.70;;;;;;5137421;27;20399;-76
2022/03/01 00:02:44;;;;;;;19.27;13.75;;;2.90;75.60;;;;;;5136556;27;20181;-76
2022/03/01 00:05:10;;;;;;;17.63;12.85;;;2.90;75.60;;;;;;5137413;27;20043;-77
2022/03/01 00:07:36;;;;;;;19.00;13.23;;;2.90;75.50;;;;;;5137260;27;20114;-77
2022/03/01 00:10:02;;;;;;;21.65;14.00;;;2.90;75.40;;;;;;5120059;27;20039;-76
2022/03/01 00:12:28;;;;;;;21.40;14.35;;;2.90;75.30;;;;;;5120074;27;20052;-76
2022/03/01 00:14:54;;;;;;;26.40;15.95;;;3.00;75.30;;;;;;5136844;27;20043;-76
2022/03/01 00:17:20;;;;;;;24.23;16.20;;;3.00;75.30;;;;;;5119668;27;20043;-76
2022/03/01 00:19:45;;;;;;;20.52;13.85;;;3.00;75.20;;;;;;5120172;27;20058;-77
2022/03/01 00:22:11;;;;;;;20.40;14.48;;;3.00;75.10;;;;;;5136871;27;20142;-76
2022/03/01 00:24:37;;;;;;;23.35;13.75;;;3.10;75.20;;;;;;5136682;27;20035;-76
2022/03/01 00:27:02;;;;;;;21.85;14.57;;;3.00;75.00;;;;;;5136395;27;20035;-77
2022/03/01 00:29:28;;;;;;;20.98;14.60;;;3.00;75.00;;;;;;5136287;27;20031;-76
2022/03/01 00:31:54;;;;;;;19.23;13.80;;;3.00;75.00;;;;;;5119190;27;20050;-76
2022/03/01 00:34:19;;;;;;;19.92;13.98;;;3.00;75.10;;;;;;5136264;27;20386;-77
2022/03/01 00:36:45;;;;;;;20.80;13.20;;;3.00;75.00;;;;;;5136191;27;20176;-77
2022/03/01 00:39:11;;;;;;;21.13;14.27;;;3.00;75.20;;;;;;5119023;27;20086;-76
2022/03/01 00:41:36;;;;;;;20.58;14.43;;;3.00;75.20;;;;;;5135925;27;20042;-76
2022/03/01 00:44:02;;;;;;;22.25;14.20;;;2.90;75.20;;;;;;5119339;27;20039;-76
2022/03/01 00:46:30;;;;;;;21.27;14.57;;;2.90;75.30;;;;;;5136179;27;20047;-77
2022/03/01 00:48:57;;;;;;;17.17;12.48;;;2.90;75.40;;;;;;5119591;27;20189;-76
2022/03/01 00:51:24;;;;;;;21.30;14.35;;;2.90;75.30;;;;;;5119299;27;20043;-76
2022/03/01 00:53:50;;;;;;;20.45;14.35;;;2.90;75.40;;;;;;5136661;27;20066;-77
2022/03/01 00:56:16;;;;;;;21.85;13.30;;;2.90;75.40;;;;;;5119208;27;20045;-77
2022/03/01 00:58:42;;;;;;;20.13;14.05;;;2.90;75.50;;;;;;5136052;27;20046;-77
2022/03/01 01:01:08;;;;;;;18.05;12.93;;;2.90;75.50;;;;;;5135426;27;20043;-76
2022/03/01 01:03:34;;;;;;;21.55;14.70;;;2.80;75.50;;;;;;5136201;27;20399;-76
2022/03/01 01:05:59;;;;;;;19.02;13.55;;;2.80;75.60;;;;;;5135723;27;20050;-76
2022/03/01 01:08:25;;;;;;;21.67;13.93;;;2.80;75.60;;;;;;5118819;27;20477;-76
2022/03/01 01:10:51;;;;;;;22.02;14.60;;;2.70;75.70;;;;;;5136256;27;20031;-76
2022/03/01 01:13:17;;;;;;;21.27;14.38;;;2.70;75.80;;;;;;5135996;27;20395;-77
2022/03/01 01:15:43;;;;;;;18.73;13.50;;;2.70;75.80;;;;;;5118464;27;20039;-76
2022/03/01 01:18:09;;;;;;;20.95;13.55;;;2.60;75.90;;;;;;5135726;27;20590;-77
2022/03/01 01:20:36;;;;;;;20.52;14.48;;;2.60;76.10;;;;;;5136335;27;20376;-77
2022/03/01 01:23:02;;;;;;;21.08;13.93;;;2.60;76.00;;;;;;5135752;27;20039;-77
2022/03/01 01:25:27;;;;;;;23.27;14.68;;;2.60;76.20;;;;;;5135590;27;20043;-76
2022/03/01 01:27:55;;;;;;;21.95;14.75;;;2.60;76.40;;;;;;5135676;27;20041;-76
2022/03/01 01:30:24;;;;;;;21.25;15.63;;;2.60;76.30;;;;;;5135480;27;20121;-77
2022/03/01 01:32:50;;;;;;;21.08;13.93;;;2.60;76.40;;;;;;5135475;27;20500;-76
2022/03/01 01:35:19;;;;;;;19.50;15.18;;;2.60;76.50;;;;;;5135456;27;20448;-77
2022/03/01 01:37:45;;;;;;;20.05;14.38;;;2.70;76.20;;;;;;5135749;27;20360;-76
2022/03/01 01:40:14;;;;;;;21.17;14.10;;;2.70;76.30;;;;;;5118332;27;20075;-76
2022/03/01 01:42:40;;;;;;;20.27;13.75;;;2.70;76.20;;;;;;5135337;27;20035;-77
2022/03/01 01:45:06;;;;;;;21.95;14.02;;;2.70;76.30;;;;;;5135402;27;20483;-76
2022/03/01 01:47:32;;;;;;;20.45;13.80;;;2.80;76.30;;;;;;5135648;27;20042;-77
2022/03/01 01:49:57;;;;;;;21.90;14.70;;;2.80;76.30;;;;;;5135083;27;20479;-76
2022/03/01 01:52:25;;;;;;;19.63;14.30;;;2.80;76.40;;;;;;5135223;27;20039;-77
2022/03/01 01:54:52;;;;;;;21.35;14.82;;;2.80;76.30;;;;;;5118004;27;20039;-76
2022/03/01 01:57:19;;;;;;;26.23;15.10;;;2.70;76.50;;;;;;5118015;27;20039;-77
2022/03/01 01:59:46;;;;;;;19.80;14.35;;;2.70;76.50;;;;;;5118165;27;20406;-77
2022/03/01 02:02:18;;;;;;;20.15;13.88;;;2.70;76.60;;;;;;5134815;27;20058;-77
2022/03/01 02:04:44;;;;;;;23.30;14.43;;;2.60;76.60;;;;;;5134793;27;20038;-77
2022/03/01 02:07:11;;;;;;;20.05;13.45;;;2.70;76.60;;;;;;5134653;27;20043;-77
2022/03/01 02:09:37;;;;;;;17.98;13.07;;;2.60;76.70;;;;;;5117556;27;20035;-77
2022/03/01 02:12:03;;;;;;;20.88;14.40;;;2.60;76.80;;;;;;5117750;27;20079;-77
2022/03/01 02:14:30;;;;;;;21.15;15.30;;;2.60;76.90;;;;;;5134730;27;20495;-77
2022/03/01 02:16:58;;;;;;;20.08;14.30;;;2.60;76.80;;;;;;5116695;27;20043;-76
2022/03/01 02:19:24;;;;;;;21.73;14.60;;;2.60;76.90;;;;;;5134761;27;20082;-76
2022/03/01 02:21:51;;;;;;;21.23;13.98;;;2.70;77.20;;;;;;5134712;27;20078;-76
2022/03/01 02:24:18;;;;;;;24.10;15.55;;;2.60;77.10;;;;;;5100613;27;20035;-76
2022/03/01 02:26:44;;;;;;;20.77;14.20;;;2.60;77.30;;;;;;5134392;27;20035;-76
2022/03/01 02:29:10;;;;;;;27.23;14.38;;;2.60;77.20;;;;;;5117149;27;20031;-76
2022/03/01 02:31:36;;;;;;;21.83;15.35;;;2.70;77.30;;;;;;5117227;27;20126;-76
2022/03/01 02:34:03;;;;;;;19.05;14.50;;;2.70;77.30;;;;;;5134123;27;20125;-76
2022/03/01 02:36:29;;;;;;;18.98;14.25;;;2.70;77.40;;;;;;5134364;27;20394;-76
2022/03/01 02:38:54;;;;;;;23.90;15.68;;;2.70;77.60;;;;;;5134246;27;20066;-76
2022/03/01 02:41:20;;;;;;;19.67;13.77;;;2.70;77.50;;;;;;5133902;27;20047;-76
2022/03/01 02:43:46;;;;;;;24.17;14.88;;;2.70;77.70;;;;;;5099907;27;20043;-76
2022/03/01 02:46:12;;;;;;;17.10;12.82;;;2.70;77.80;;;;;;5133611;27;20042;-76
2022/03/01 02:48:40;;;;;;;21.55;14.32;;;2.70;77.70;;;;;;5134173;27;20061;-76
2022/03/01 02:51:06;;;;;;;21.63;13.70;;;2.70;77.80;;;;;;5133904;27;20068;-76
2022/03/01 02:53:34;;;;;;;18.05;13.75;;;2.60;77.80;;;;;;5116981;27;20035;-76
2022/03/01 02:56:00;;;;;;;21.63;14.38;;;2.60;77.80;;;;;;5133710;27;20497;-76
2022/03/01 02:58:26;;;;;;;21.65;14.23;;;2.60;78.10;;;;;;5133895;27;20070;-76
2022/03/01 03:00:52;;;;;;;20.13;13.70;;;2.60;78.00;;;;;;5116072;27;20046;-76
2022/03/01 03:03:18;;;;;;;20.67;13.85;;;2.60;78.00;;;;;;5133141;27;20051;-77
2022/03/01 03:05:43;;;;;;;22.58;14.27;;;2.60;78.10;;;;;;5133365;27;20125;-76
2022/03/01 03:08:09;;;;;;;25.15;15.30;;;2.60;78.10;;;;;;5133401;27;20041;-77
2022/03/01 03:10:35;;;;;;;21.27;14.45;;;2.60;78.20;;;;;;5116643;27;20039;-77
2022/03/01 03:13:01;;;;;;;20.40;14.65;;;2.60;78.40;;;;;;5133612;27;20406;-77
2022/03/01 03:15:27;;;;;;;23.45;15.07;;;2.60;78.20;;;;;;5133908;27;20043;-77
2022/03/01 03:17:54;;;;;;;22.05;15.02;;;2.60;78.20;;;;;;5133901;27;20475;-77
2022/03/01 03:20:20;;;;;;;20.35;13.55;;;2.60;78.40;;;;;;5116532;27;20091;-77
2022/03/01 03:22:46;;;;;;;23.67;15.35;;;2.60;78.40;;;;;;5099309;27;20384;-77
2022/03/01 03:25:12;;;;;;;19.92;14.32;;;2.60;78.30;;;;;;5133526;27;20084;-76
2022/03/01 03:27:38;;;;;;;21.95;14.57;;;2.60;78.60;;;;;;5132881;27;20039;-77
2022/03/01 03:30:06;;;;;;;19.38;13.65;;;2.60;78.60;;;;;;5115923;27;20037;-76
2022/03/01 03:32:31;;;;;;;22.27;14.38;;;2.60;78.50;;;;;;5099443;27;20039;-76
2022/03/01 03:34:57;;;;;;;18.67;14.32;;;2.60;78.50;;;;;;5133291;27;20092;-76
2022/03/01 03:37:23;;;;;;;19.92;14.02;;;2.60;78.40;;;;;;5133053;27;20486;-76
2022/03/01 03:39:48;;;;;;;20.00;13.68;;;2.60;78.40;;;;;;5132923;27;20129;-76
2022/03/01 03:42:14;;;;;;;22.73;14.57;;;2.60;78.50;;;;;;5132608;28;20039;-76
2022/03/01 03:44:40;;;;;;;21.08;14.80;;;2.60;78.70;;;;;;5132771;27;20036;-76
2022/03/01 03:47:06;;;;;;;20.73;14.20;;;2.60;78.70;;;;;;5132965;28;20046;-76
2022/03/01 03:49:32;;;;;;;21.13;14.98;;;2.60;78.80;;;;;;5098711;28;20167;-76
2022/03/01 03:51:59;;;;;;;20.17;13.57;;;2.60;78.70;;;;;;5133132;28;20129;-76
2022/03/01 03:54:25;;;;;;;20.02;14.30;;;2.60;78.70;;;;;;5133107;28;20054;-76
2022/03/01 03:56:51;;;;;;;22.60;15.52;;;2.60;78.70;;;;;;5132982;28;20074;-76
2022/03/01 03:59:17;;;;;;;24.40;16.10;;;2.60;78.80;;;;;;5115838;28;20124;-77
2022/03/01 04:01:43;;;;;;;22.92;15.85;;;2.60;78.90;;;;;;5098882;28;20047;-76
2022/03/01 04:04:09;;;;;;;19.77;14.38;;;2.60;78.80;;;;;;5115934;28;20491;-76
2022/03/01 04:06:36;;;;;;;21.58;13.75;;;2.60;79.00;;;;;;5115614;28;20043;-77
2022/03/01 04:09:03;;;;;;;20.95;14.77;;;2.60;78.90;;;;;;5132741;28;20518;-76
2022/03/01 04:11:28;;;;;;;21.85;14.07;;;2.60;79.10;;;;;;5132781;28;20172;-76
2022/03/01 04:13:54;;;;;;;22.23;14.75;;;2.60;79.00;;;;;;5115607;28;20122;-76
2022/03/01 04:16:20;;;;;;;20.98;15.13;;;2.60;79.00;;;;;;5132438;28;20031;-76
2022/03/01 04:18:46;;;;;;;20.83;14.43;;;2.60;79.10;;;;;;5132532;28;20047;-76
2022/03/01 04:21:14;;;;;;;21.95;15.45;;;2.60;79.00;;;;;;5132267;28;20405;-76
2022/03/01 04:23:39;;;;;;;22.33;15.15;;;2.60;79.20;;;;;;5132260;28;20045;-76
2022/03/01 04:26:05;;;;;;;27.83;15.10;;;2.60;79.20;;;;;;5132355;28;20122;-76
2022/03/01 04:28:31;;;;;;;21.38;15.15;;;2.60;79.30;;;;;;5115874;28;20125;-76
2022/03/01 04:30:57;;;;;;;21.05;14.60;;;2.60;79.20;;;;;;5132903;28;20467;-76
2022/03/01 04:33:23;;;;;;;21.63;15.85;;;2.60;79.20;;;;;;5132724;28;20039;-76
2022/03/01 04:35:49;;;;;;;21.33;15.25;;;2.60;79.20;;;;;;5132495;28;20031;-76
2022/03/01 04:38:15;;;;;;;21.55;14.80;;;2.60;79.30;;;;;;5132573;28;20076;-76
2022/03/01 04:40:41;;;;;;;18.95;14.27;;;2.60;79.40;;;;;;5118620;27;20035;-76
2022/03/01 04:43:07;;;;;;;21.45;14.57;;;2.60;79.30;;;;;;5136094;27;20483;-76
2022/03/01 04:45:32;;;;;;;24.63;14.48;;;2.60;79.50;;;;;;5119405;27;20417;-76
2022/03/01 04:47:59;;;;;;;21.52;15.23;;;2.60;79.40;;;;;;5102201;27;20039;-77
2022/03/01 04:50:25;;;;;;;23.33;16.08;;;2.60;79.30;;;;;;5119107;27;20077;-77
2022/03/01 04:52:51;;;;;;;20.98;15.07;;;2.60;79.50;;;;;;5119492;27;20163;-77
2022/03/01 04:55:17;;;;;;;21.95;14.88;;;2.60;79.40;;;;;;5136066;27;20511;-77
2022/03/01 04:57:43;;;;;;;20.70;14.48;;;2.60;79.50;;;;;;5136356;27;20043;-77
2022/03/01 05:00:11;;;;;;;19.80;13.82;;;2.60;79.50;;;;;;5136359;27;20049;-77
2022/03/01 05:02:42;;;;;;;20.75;14.85;;;2.60;79.50;;;;;;5101750;27;20502;-76
2022/03/01 05:05:10;;;;;;;19.88;14.15;;;2.70;79.50;;;;;;5136293;27;20387;-76
2022/03/01 05:07:38;;;;;;;24.40;15.20;;;2.60;79.60;;;;;;5135783;27;20043;-76
2022/03/01 05:10:04;;;;;;;20.20;14.10;;;2.60;79.50;;;;;;5119005;27;20421;-76
2022/03/01 05:12:30;;;;;;;23.38;14.95;;;2.70;79.50;;;;;;5118680;27;20042;-77
2022/03/01 05:14:55;;;;;;;18.83;14.00;;;2.60;79.70;;;;;;5118629;27;20143;-77
2022/03/01 05:17:24;;;;;;;21.95;14.55;;;2.60;79.70;;;;;;5101690;27;20100;-77
2022/03/01 05:19:50;;;;;;;19.55;14.13;;;2.60;79.80;;;;;;5135712;27;20038;-77
2022/03/01 05:22:15;;;;;;;21.70;14.57;;;2.60;79.80;;;;;;5135657;27;20066;-77
2022/03/01 05:24:41;;;;;;;20.77;14.70;;;2.60;79.70;;;;;;5118478;27;20034;-77
2022/03/01 05:27:07;;;;;;;22.75;14.52;;;2.60;79.90;;;;;;5135668;27;20039;-77
2022/03/01 05:29:34;;;;;;;23.13;15.43;;;2.60;79.80;;;;;;5135408;27;20039;-76
2022/03/01 05:31:59;;;;;;;21.40;14.80;;;2.60;79.80;;;;;;5135642;27;20050;-77
2022/03/01 05:34:25;;;;;;;18.92;13.75;;;2.60;79.90;;;;;;5135272;27;20122;-77
2022/03/01 05:36:51;;;;;;;22.92;15.25;;;2.60;80.10;;;;;;5135460;27;20126;-77
2022/03/01 05:39:16;;;;;;;19.80;14.00;;;2.60;80.10;;;;;;5135565;27;20091;-77
2022/03/01 05:41:42;;;;;;;21.10;14.68;;;2.60;80.20;;;;;;5118310;27;20047;-77
2022/03/01 05:44:08;;;;;;;21.77;14.85;;;2.60;80.10;;;;;;5118285;27;20368;-77
2022/03/01 05:46:34;;;;;;;20.35;14.60;;;2.70;80.10;;;;;;5118266;27;20126;-77
2022/03/01 05:49:00;;;;;;;19.33;13.75;;;2.60;80.20;;;;;;5118238;27;20451;-77
2022/03/01 05:51:26;;;;;;;22.88;14.70;;;2.70;80.20;;;;;;5133982;27;20049;-77
2022/03/01 05:53:54;;;;;;;25.00;14.27;;;2.70;80.30;;;;;;5134874;27;20039;-77
2022/03/01 05:56:19;;;;;;;21.52;15.00;;;2.70;80.20;;;;;;5134592;27;20051;-77
2022/03/01 05:58:45;;;;;;;19.63;13.52;;;2.70;80.20;;;;;;5117646;27;20042;-77
2022/03/01 06:01:11;;;;;;;21.05;15.27;;;2.70;80.10;;;;;;5100343;27;20057;-76
2022/03/01 06:03:36;;;;;;;23.65;14.70;;;2.70;80.20;;;;;;5134474;27;20163;-77
2022/03/01 06:06:02;;;;;;;22.70;15.27;;;2.70;80.10;;;;;;5134555;27;20046;-77
2022/03/01 06:08:28;;;;;;;21.77;14.80;;;2.70;80.20;;;;;;5117676;27;20038;-77
2022/03/01 06:10:54;;;;;;;20.50;13.52;;;2.70;80.20;;;;;;5134598;27;20092;-77
2022/03/01 06:13:20;;;;;;;23.90;16.58;;;2.70;80.20;;;;;;5101071;27;20035;-76
2022/03/01 06:15:48;;;;;;;24.05;18.88;;;2.80;80.20;;;;;;5117141;27;20130;-77
2022/03/01 06:18:14;;;;;;;46.00;21.10;;;2.80;80.30;;;;;;5135043;27;20390;-78
2022/03/01 06:20:40;;;;;;;27.90;18.05;;;2.70;80.40;;;;;;5117256;27;20050;-77
2022/03/01 06:23:06;;;;;;;25.17;17.67;;;2.70;80.40;;;;;;5113858;28;20122;-77
2022/03/01 06:25:31;;;;;;;22.52;15.25;;;2.80;80.40;;;;;;5113701;28;20429;-77
2022/03/01 06:27:57;;;;;;;24.15;15.43;;;2.80;80.30;;;;;;5114390;28;20089;-77
2022/03/01 06:30:23;;;;;;;21.55;14.88;;;2.80;80.30;;;;;;5084583;28;20502;-77
2022/03/01 06:32:48;;;;;;;22.17;16.45;;;2.90;80.20;;;;;;5117145;27;20039;-77
2022/03/01 06:35:14;;;;;;;21.20;14.02;;;2.90;80.10;;;;;;5096937;28;20365;-77
2022/03/01 06:37:40;;;;;;;23.23;14.55;;;2.90;80.10;;;;;;5113706;28;20039;-77
2022/03/01 06:40:06;;;;;;;21.30;15.65;;;2.90;80.20;;;;;;5096752;28;20085;-76
2022/03/01 06:42:33;;;;;;;20.67;15.38;;;2.90;80.10;;;;;;5116170;27;20051;-77
2022/03/01 06:44:58;;;;;;;21.08;16.30;;;2.90;80.10;;;;;;5123609;27;20075;-77
2022/03/01 06:47:24;;;;;;;20.58;14.48;;;3.00;80.20;;;;;;5112867;28;20109;-77
2022/03/01 06:49:51;;;;;;;18.40;14.38;;;3.00;80.00;;;;;;5119594;27;20083;-77
2022/03/01 06:52:17;;;;;;;23.15;16.33;;;3.00;79.90;;;;;;5121922;27;20051;-77
2022/03/01 06:54:42;;;;;;;22.27;15.77;;;3.10;80.00;;;;;;5118909;27;20047;-77
2022/03/01 06:57:08;;;;;;;22.77;14.88;;;3.10;80.00;;;;;;5113091;28;20043;-77
2022/03/01 06:59:34;;;;;;;23.20;14.35;;;3.10;80.00;;;;;;5079734;28;20044;-77
2022/03/01 07:02:00;;;;;;;20.95;15.60;;;3.20;80.00;;;;;;5095597;28;20055;-77
2022/03/01 07:04:26;;;;;;;20.20;14.60;;;3.20;79.90;;;;;;5113332;28;20055;-77
2022/03/01 07:06:52;;;;;;;21.98;16.02;;;3.20;79.80;;;;;;5079426;28;20050;-77
2022/03/01 07:09:18;;;;;;;21.83;15.10;;;3.30;79.80;;;;;;5114646;27;20508;-78
2022/03/01 07:11:44;;;;;;;26.80;19.70;;;3.20;79.60;;;;;;5110060;27;20050;-78
2022/03/01 07:14:09;;;;;;;22.23;16.10;;;3.20;79.60;;;;;;5098618;28;20485;-78
2022/03/01 07:16:35;;;;;;;21.88;15.82;;;3.20;79.60;;;;;;5112809;28;20043;-77
2022/03/01 07:19:01;;;;;;;20.92;15.00;;;3.30;79.70;;;;;;5120677;27;20118;-78
2022/03/01 07:21:26;;;;;;;20.70;15.63;;;3.30;79.80;;;;;;5121054;27;20058;-78
2022/03/01 07:23:52;;;;;;;26.65;15.70;;;3.40;79.70;;;;;;5106584;27;20031;-78
2022/03/01 07:26:18;;;;;;;21.38;15.23;;;3.40;79.60;;;;;;5120918;27;20462;-77
2022/03/01 07:28:44;;;;;;;22.17;15.27;;;3.40;79.70;;;;;;5122016;27;20036;-78
2022/03/01 07:31:09;;;;;;;25.05;16.02;;;3.40;79.70;;;;;;5108221;28;20471;-77
2022/03/01 07:33:38;;;;;;;24.77;15.38;;;3.50;79.70;;;;;;5133312;27;20042;-77
2022/03/01 07:36:04;;;;;;;20.65;15.07;;;3.50;79.70;;;;;;5099563;27;20043;-77
2022/03/01 07:38:30;;;;;;;18.27;13.45;;;3.50;79.60;;;;;;5116198;28;20035;-77
2022/03/01 07:40:56;;;;;;;19.73;13.32;;;3.60;79.60;;;;;;5116305;27;20043;-77
2022/03/01 07:43:22;;;;;;;21.33;14.38;;;3.50;79.50;;;;;;5133281;27;20368;-77
2022/03/01 07:45:47;;;;;;;21.60;14.93;;;3.60;79.50;;;;;;5132957;27;20042;-75
2022/03/01 07:48:13;;;;;;;22.45;15.57;;;3.60;79.40;;;;;;5106766;28;20192;-78
2022/03/01 07:50:39;;;;;;;21.08;15.57;;;3.60;79.40;;;;;;5120985;28;20032;-78
2022/03/01 07:53:04;;;;;;;21.67;15.10;;;3.70;79.40;;;;;;5117160;28;20408;-77
2022/03/01 07:55:30;;;;;;;20.45;15.07;;;3.70;79.20;;;;;;5112599;28;20035;-77
2022/03/01 07:57:58;;;;;;;20.17;15.35;;;3.80;79.10;;;;;;5095971;28;20049;-77
2022/03/01 08:00:24;;;;;;;27.17;15.77;;;3.80;78.70;;;;;;5079164;28;20097;-78
2022/03/01 08:02:52;;;;;;;21.30;14.75;;;3.80;78.70;;;;;;5111950;28;20044;-77
2022/03/01 08:05:17;;;;;;;20.85;14.65;;;3.80;78.10;;;;;;5095017;28;20039;-77
2022/03/01 08:07:46;;;;;;;20.02;14.63;;;3.90;78.10;;;;;;5111938;28;20394;-77
2022/03/01 08:10:12;;;;;;;20.02;13.90;;;3.90;78.30;;;;;;5111917;28;20040;-77
2022/03/01 08:12:38;;;;;;;22.40;14.05;;;4.00;77.50;;;;;;5111654;28;20042;-77
2022/03/01 08:15:04;;;;;;;22.85;15.18;;;4.10;78.00;;;;;;5113781;28;20035;-77
2022/03/01 08:17:29;;;;;;;21.25;14.77;;;4.10;77.30;;;;;;5115790;28;20051;-77
2022/03/01 08:19:55;;;;;;;21.73;15.13;;;4.10;77.20;;;;;;5115660;28;20036;-78
2022/03/01 08:22:21;;;;;;;21.50;14.60;;;4.10;77.20;;;;;;5081834;28;20058;-77
2022/03/01 08:24:47;;;;;;;25.23;15.85;;;4.20;77.40;;;;;;5098389;28;20040;-77
2022/03/01 08:27:12;;;;;;;20.52;14.85;;;4.20;77.30;;;;;;5115852;28;20494;-77
2022/03/01 08:29:38;;;;;;;23.13;15.63;;;4.30;76.60;;;;;;5098756;28;20399;-76
2022/03/01 08:32:04;;;;;;;22.40;15.43;;;4.30;76.90;;;;;;5115761;28;20144;-76
2022/03/01 08:34:30;;;;;;;23.42;17.83;;;4.30;76.80;;;;;;5098360;28;20587;-77
2022/03/01 08:36:55;;;;;;;22.92;16.30;;;4.40;76.50;;;;;;5098647;28;20043;-77
2022/03/01 08:39:21;;;;;;;21.80;15.45;;;4.40;76.40;;;;;;5098463;28;20031;-76
2022/03/01 08:41:47;;;;;;;21.92;15.25;;;4.40;75.90;;;;;;5115242;28;20132;-76
2022/03/01 08:44:12;;;;;;;23.60;14.60;;;4.40;76.20;;;;;;5098216;28;20039;-77
2022/03/01 08:46:38;;;;;;;21.77;15.68;;;4.50;76.50;;;;;;5115122;28;20054;-77
2022/03/01 08:49:04;;;;;;;23.77;17.17;;;4.50;75.90;;;;;;5115231;28;20032;-76
2022/03/01 08:51:30;;;;;;;22.50;15.00;;;4.50;75.90;;;;;;5115375;28;20440;-77
2022/03/01 08:53:56;;;;;;;22.52;17.02;;;4.60;76.20;;;;;;5115131;28;20079;-77
2022/03/01 08:56:22;;;;;;;20.95;15.45;;;4.60;75.70;;;;;;5114875;28;20081;-77
2022/03/01 08:58:48;;;;;;;22.38;15.43;;;4.60;76.10;;;;;;5114984;28;20089;-77
2022/03/01 09:01:14;;;;;;;20.15;13.93;;;4.60;75.60;;;;;;5097854;28;20039;-77
2022/03/01 09:03:41;;;;;;;24.70;16.77;;;4.60;75.70;;;;;;5114734;28;20384;-77
2022/03/01 09:06:07;;;;;;;24.88;17.63;;;4.60;75.50;;;;;;5097791;28;20564;-77
2022/03/01 09:08:34;;;;;;;22.83;15.98;;;4.60;75.60;;;;;;5114789;28;20061;-77
2022/03/01 09:11:00;;;;;;;23.85;16.25;;;4.60;75.10;;;;;;5114707;28;20047;-76
2022/03/01 09:13:27;;;;;;;23.25;16.27;;;4.70;75.50;;;;;;5114703;28;20043;-77
2022/03/01 09:15:52;;;;;;;24.45;16.08;;;4.70;75.30;;;;;;5114575;28;20079;-77
2022/03/01 09:18:18;;;;;;;25.65;16.55;;;4.80;75.50;;;;;;5114606;28;20074;-77
2022/03/01 09:20:44;;;;;;;21.73;15.48;;;4.80;75.30;;;;;;5097663;28;20039;-77
2022/03/01 09:23:09;;;;;;;27.95;18.92;;;4.80;75.00;;;;;;5097428;28;20470;-76
2022/03/01 09:25:35;;;;;;;26.45;17.23;;;4.80;75.20;;;;;;5113239;28;20043;-77
2022/03/01 09:28:01;;;;;;;25.98;16.70;;;4.90;74.60;;;;;;5097348;28;20387;-76
2022/03/01 09:30:27;;;;;;;25.15;15.98;;;4.90;74.40;;;;;;5097452;28;20495;-77
2022/03/01 09:32:52;;;;;;;21.88;16.17;;;5.00;74.20;;;;;;5114641;28;20425;-77
2022/03/01 09:35:18;;;;;;;22.98;16.40;;;5.00;73.80;;;;;;5080613;28;20180;-76
2022/03/01 09:37:44;;;;;;;23.70;16.52;;;5.10;74.50;;;;;;5114343;28;20048;-77
2022/03/01 09:40:12;;;;;;;23.00;15.95;;;5.10;73.40;;;;;;5114150;28;20046;-77
2022/03/01 09:42:39;;;;;;;24.92;16.38;;;5.10;73.60;;;;;;5097131;28;20044;-76
2022/03/01 09:45:06;;;;;;;19.60;13.60;;;5.10;73.20;;;;;;5114276;28;20065;-76
2022/03/01 09:47:32;;;;;;;20.95;15.73;;;5.20;73.40;;;;;;5097343;28;20089;-76
2022/03/01 09:49:58;;;;;;;24.00;17.15;;;5.20;73.50;;;;;;5097019;28;20484;-76
2022/03/01 09:52:23;;;;;;;21.55;15.43;;;5.20;72.70;;;;;;5114397;28;20387;-76
2022/03/01 09:54:50;;;;;;;24.60;16.20;;;5.20;72.90;;;;;;5113798;28;20119;-76
2022/03/01 09:57:18;;;;;;;24.33;15.68;;;5.30;73.30;;;;;;5114168;28;20135;-77
2022/03/01 09:59:44;;;;;;;24.65;18.23;;;5.30;73.60;;;;;;5096928;28;20051;-77
2022/03/01 10:02:10;;;;;;;27.35;16.63;;;5.30;74.20;;;;;;5113695;28;20392;-76
2022/03/01 10:04:57;;;;;;;27.40;17.00;;;5.30;74.80;;;;;;5096797;28;20509;-76
2022/03/01 10:07:25;;;;;;;27.65;19.00;;;5.30;75.20;;;;;;5113634;28;20044;-75
2022/03/01 10:09:51;;;;;;;26.70;20.80;;;5.30;75.70;;;;;;5113622;28;20089;-76
2022/03/01 10:12:25;;;;;;;31.30;21.20;;;5.40;76.00;;;;;;5096853;28;20039;-75
2022/03/01 10:15:10;;;;;;;31.05;20.40;;;5.40;75.80;;;;;;5113495;28;20074;-76
2022/03/01 10:17:44;;;;;;;26.98;18.55;;;5.50;75.90;;;;;;5113731;28;20040;-76
2022/03/01 10:20:11;;;;;;;28.92;20.90;;;5.50;76.60;;;;;;5113711;28;20046;-76
2022/03/01 10:22:49;;;;;;;24.50;17.15;;;5.50;76.70;;;;;;5113407;28;20044;-76
2022/03/01 10:25:17;;;;;;;24.10;18.02;;;5.60;76.50;;;;;;5113339;28;20071;-76
2022/03/01 10:27:44;;;;;;;22.50;16.40;;;5.60;76.50;;;;;;5113311;28;20096;-76
2022/03/01 10:30:12;;;;;;;25.40;18.30;;;5.60;76.60;;;;;;5096403;28;20046;-76
2022/03/01 10:32:38;;;;;;;25.42;17.23;;;5.60;77.30;;;;;;5113195;28;20510;-75
2022/03/01 10:35:07;;;;;;;27.40;18.23;;;5.60;76.90;;;;;;5113224;28;20044;-76
2022/03/01 10:37:39;;;;;;;28.13;18.25;;;5.60;76.60;;;;;;5112971;28;20051;-75
2022/03/01 10:40:16;;;;;;;24.23;18.13;;;5.60;76.90;;;;;;5113089;28;20050;-76
2022/03/01 10:42:43;;;;;;;24.10;18.17;;;5.60;76.30;;;;;;5112776;28;20044;-76
2022/03/01 10:45:10;;;;;;;27.02;19.10;;;5.50;76.40;;;;;;5113168;28;20034;-76
2022/03/01 10:47:37;;;;;;;26.65;17.95;;;5.50;76.50;;;;;;5095987;28;20039;-76
2022/03/01 10:50:11;;;;;;;27.38;18.20;;;5.50;77.10;;;;;;5112796;28;20479;-76
2022/03/01 10:52:41;;;;;;;27.10;20.25;;;5.60;77.10;;;;;;5112805;28;20050;-76
2022/03/01 10:55:22;;;;;;;27.50;18.33;;;5.60;77.80;;;;;;5096101;28;20047;-76
2022/03/01 10:58:08;;;;;;;25.95;17.75;;;5.50;78.50;;;;;;5113021;28;20044;-76
2022/03/01 11:00:35;;;;;;;26.30;18.70;;;5.60;78.40;;;;;;5112718;28;20073;-76
2022/03/01 11:03:08;;;;;;;27.30;18.27;;;5.60;79.00;;;;;;5112215;28;20055;-76
2022/03/01 11:05:35;;;;;;;26.42;18.88;;;5.50;78.60;;;;;;5079084;28;20039;-76
2022/03/01 11:08:08;;;;;;;30.48;20.60;;;5.60;78.70;;;;;;5112879;28;20035;-75
2022/03/01 11:10:37;;;;;;;29.75;20.30;;;5.60;78.40;;;;;;5112783;28;20040;-75
2022/03/01 11:13:05;;;;;;;32.25;21.77;;;5.50;79.10;;;;;;5078645;28;20046;-75
2022/03/01 11:15:41;;;;;;;27.63;20.65;;;5.60;79.50;;;;;;5112604;28;20078;-75
2022/03/01 11:18:38;;;;;;;27.75;20.27;;;5.50;79.60;;;;;;5112356;28;20035;-75
2022/03/01 11:21:05;;;;;;;30.98;22.27;;;5.60;79.20;;;;;;5095311;28;20040;-75
2022/03/01 11:23:32;;;;;;;31.95;23.05;;;5.60;79.40;;;;;;5095445;28;20075;-75
2022/03/01 11:26:11;;;;;;;34.08;23.10;;;5.60;79.40;;;;;;5112137;28;20511;-75
2022/03/01 11:28:40;;;;;;;32.72;22.52;;;5.60;79.30;;;;;;5095432;28;20534;-75
2022/03/01 11:31:27;;;;;;;34.88;23.52;;;5.60;79.50;;;;;;5112193;28;20043;-75
2022/03/01 11:34:01;;;;;;;34.33;22.83;;;5.70;79.80;;;;;;5112332;28;20480;-77
2022/03/01 11:36:30;;;;;;;32.85;23.00;;;5.70;79.60;;;;;;5095296;28;20425;-77
2022/03/01 11:39:08;;;;;;;31.67;21.95;;;5.80;79.60;;;;;;5112369;28;20441;-77
2022/03/01 11:41:42;;;;;;;36.70;23.30;;;5.80;79.90;;;;;;5112136;28;20475;-77
2022/03/01 11:44:09;;;;;;;35.53;22.38;;;5.80;79.80;;;;;;5112334;28;20383;-77
2022/03/01 11:46:43;;;;;;;34.45;22.90;;;5.70;79.60;;;;;;5094899;28;20042;-75
2022/03/01 11:49:12;;;;;;;33.63;22.17;;;5.70;79.50;;;;;;5111461;28;20441;-77
2022/03/01 11:51:40;;;;;;;32.05;21.65;;;5.70;79.60;;;;;;5111980;28;20159;-77
2022/03/01 11:54:12;;;;;;;31.85;22.17;;;5.70;79.50;;;;;;5111917;28;20044;-77
2022/03/01 11:56:41;;;;;;;29.63;20.83;;;5.70;79.70;;;;;;5094926;28;20040;-77
2022/03/01 11:59:09;;;;;;;33.90;21.33;;;5.70;79.60;;;;;;5094508;28;20047;-77
2022/03/01 12:01:36;;;;;;;33.50;22.35;;;5.80;79.80;;;;;;5111777;28;20075;-77
2022/03/01 12:04:06;;;;;;;31.05;20.45;;;5.80;79.70;;;;;;5129181;28;20131;-75
2022/03/01 12:06:38;;;;;;;34.40;22.77;;;5.80;79.60;;;;;;5111775;28;20042;-75
2022/03/01 12:09:10;;;;;;;31.90;22.50;;;5.80;79.70;;;;;;5111876;28;20031;-77
2022/03/01 12:11:38;;;;;;;28.52;20.52;;;6.00;79.70;;;;;;5111828;28;20122;-75
2022/03/01 12:14:09;;;;;;;30.38;20.65;;;6.00;79.60;;;;;;5111989;28;20047;-75
2022/03/01 12:16:36;;;;;;;32.92;21.55;;;6.10;79.70;;;;;;5111619;28;20048;-75
2022/03/01 12:19:13;;;;;;;26.05;19.85;;;6.10;79.70;;;;;;5111911;28;20428;-75
2022/03/01 12:21:40;;;;;;;31.40;20.67;;;6.10;79.60;;;;;;5111966;28;20071;-76
2022/03/01 12:24:06;;;;;;;27.70;19.38;;;6.10;79.60;;;;;;5094720;28;20043;-76
2022/03/01 12:26:42;;;;;;;30.23;20.50;;;6.20;79.60;;;;;;5111596;28;20067;-76
2022/03/01 12:29:10;;;;;;;27.95;20.73;;;6.20;79.40;;;;;;5094615;28;20095;-76
2022/03/01 12:31:36;;;;;;;28.15;21.40;;;6.20;79.60;;;;;;5094662;28;20047;-76
2022/03/01 12:34:09;;;;;;;28.13;20.20;;;6.30;79.60;;;;;;5111548;28;20036;-76